createdAt,value
2019-01-29T00:01:55.773Z,0.90
2019-01-29T00:04:25.191Z,0.90
2019-01-29T00:06:54.511Z,0.80
2019-01-29T00:09:23.830Z,0.80
2019-01-29T00:11:53.255Z,0.80
2019-01-29T00:14:22.714Z,0.80
2019-01-29T00:16:52.054Z,0.70
2019-01-29T00:19:21.452Z,0.80
2019-01-29T00:21:50.772Z,0.80
2019-01-29T00:24:20.134Z,0.80
2019-01-29T00:26:49.435Z,0.80
2019-01-29T00:29:18.846Z,0.80
2019-01-29T00:31:48.245Z,0.80
2019-01-29T00:34:17.808Z,0.80
2019-01-29T00:36:47.119Z,0.80
2019-01-29T00:39:16.455Z,0.80
2019-01-29T00:41:45.884Z,0.70
2019-01-29T00:44:15.257Z,0.70
2019-01-29T00:46:44.767Z,0.70
2019-01-29T00:49:14.065Z,0.60
2019-01-29T00:51:43.439Z,0.60
2019-01-29T00:54:12.804Z,0.60
2019-01-29T00:56:42.244Z,0.60
2019-01-29T00:59:11.601Z,0.50
2019-01-29T01:01:40.906Z,0.50
2019-01-29T01:04:10.252Z,0.50
2019-01-29T01:06:39.732Z,0.40
2019-01-29T01:09:10.040Z,0.40
2019-01-29T01:11:39.431Z,0.40
2019-01-29T01:14:08.828Z,0.40
2019-01-29T01:16:38.161Z,0.40
2019-01-29T01:19:07.482Z,0.40
2019-01-29T01:21:36.912Z,0.40
2019-01-29T01:24:06.223Z,0.30
2019-01-29T01:26:35.620Z,0.30
2019-01-29T01:29:05.016Z,0.20
2019-01-29T01:31:34.400Z,0.20
2019-01-29T01:34:03.800Z,0.20
2019-01-29T01:36:33.184Z,0.20
2019-01-29T01:39:03.790Z,0.10
2019-01-29T01:41:33.068Z,0.10
2019-01-29T01:44:02.573Z,0.10
2019-01-29T01:46:31.951Z,0.10
2019-01-29T01:49:01.247Z,0.10
2019-01-29T01:51:30.668Z,0.10
2019-01-29T01:54:00.009Z,0.10
2019-01-29T01:56:29.434Z,0.00
2019-01-29T01:58:58.819Z,0.00
2019-01-29T02:01:28.354Z,0.00
2019-01-29T02:03:57.716Z,0.00
2019-01-29T02:06:27.008Z,-0.10
2019-01-29T02:08:56.392Z,-0.10
2019-01-29T02:11:25.778Z,-0.10
2019-01-29T02:13:55.218Z,-0.20
2019-01-29T02:16:24.516Z,-0.20
2019-01-29T02:18:53.924Z,-0.20
2019-01-29T02:21:23.812Z,-0.20
2019-01-29T02:23:53.155Z,-0.20
2019-01-29T02:26:22.538Z,-0.30
2019-01-29T02:28:51.970Z,-0.30
2019-01-29T02:31:21.477Z,-0.30
2019-01-29T02:33:50.865Z,-0.30
2019-01-29T02:36:20.306Z,-0.30
2019-01-29T02:38:49.659Z,-0.30
2019-01-29T02:41:18.965Z,-0.30
2019-01-29T02:43:48.438Z,-0.30
2019-01-29T02:46:17.742Z,-0.40
2019-01-29T02:48:47.100Z,-0.40
2019-01-29T02:51:17.945Z,-0.40
2019-01-29T02:53:47.521Z,-0.40
2019-01-29T02:56:16.907Z,-0.40
2019-01-29T02:58:46.272Z,-0.40
2019-01-29T03:01:15.615Z,-0.50
2019-01-29T03:03:45.022Z,-0.50
2019-01-29T03:06:14.503Z,-0.60
2019-01-29T03:08:43.840Z,-0.60
2019-01-29T03:11:13.194Z,-0.60
2019-01-29T03:13:42.578Z,-0.70
2019-01-29T03:16:11.896Z,-0.70
2019-01-29T03:18:41.307Z,-0.70
2019-01-29T03:21:10.680Z,-0.80
2019-01-29T03:23:39.960Z,-0.70
2019-01-29T03:26:09.346Z,-0.80
2019-01-29T03:28:38.688Z,-0.80
2019-01-29T03:31:07.987Z,-0.80
2019-01-29T03:33:37.271Z,-0.80
2019-01-29T03:36:06.649Z,-0.80
2019-01-29T03:38:36.001Z,-0.90
2019-01-29T03:41:05.421Z,-0.90
2019-01-29T03:43:34.751Z,-1.00
2019-01-29T03:46:04.114Z,-1.00
2019-01-29T03:48:33.594Z,-1.00
2019-01-29T03:51:02.964Z,-1.00
2019-01-29T03:53:38.222Z,-1.00
2019-01-29T03:56:03.463Z,-1.00
2019-01-29T03:58:32.911Z,-1.00
2019-01-29T04:01:02.214Z,-1.00
2019-01-29T04:03:31.572Z,-1.00
2019-01-29T04:06:01.052Z,-1.00
2019-01-29T04:08:30.423Z,-1.00
2019-01-29T04:10:59.719Z,-1.00
2019-01-29T04:13:29.041Z,-1.00
2019-01-29T04:15:58.435Z,-1.00
2019-01-29T04:18:27.868Z,-1.00
2019-01-29T04:20:57.221Z,-1.00
2019-01-29T04:23:26.606Z,-0.90
2019-01-29T04:25:55.835Z,-0.90
2019-01-29T04:28:25.231Z,-1.00
2019-01-29T04:30:54.503Z,-0.90
2019-01-29T04:33:23.877Z,-0.90
2019-01-29T04:35:53.218Z,-0.90
2019-01-29T04:38:22.735Z,-0.90
2019-01-29T04:40:52.049Z,-0.90
2019-01-29T04:43:21.464Z,-0.90
2019-01-29T04:45:50.831Z,-0.90
2019-01-29T04:48:24.275Z,-0.90
2019-01-29T04:50:53.598Z,-0.90
2019-01-29T04:53:22.967Z,-0.90
2019-01-29T04:55:52.308Z,-0.90
2019-01-29T04:58:21.740Z,-0.90
2019-01-29T05:00:51.216Z,-0.90
2019-01-29T05:03:20.600Z,-0.90
2019-01-29T05:05:49.989Z,-0.90
2019-01-29T05:08:19.397Z,-0.90
2019-01-29T05:10:48.779Z,-1.00
2019-01-29T05:13:18.175Z,-1.00
2019-01-29T05:15:47.555Z,-1.00
2019-01-29T05:18:17.633Z,-1.00
2019-01-29T05:20:46.947Z,-1.00
2019-01-29T05:23:16.399Z,-1.00
2019-01-29T05:25:46.026Z,-1.00
2019-01-29T05:28:15.387Z,-1.00
2019-01-29T05:30:44.776Z,-1.00
2019-01-29T05:33:14.208Z,-1.00
2019-01-29T05:35:43.603Z,-1.00
2019-01-29T05:38:12.940Z,-1.00
2019-01-29T05:40:42.387Z,-1.00
2019-01-29T05:43:11.845Z,-1.00
2019-01-29T05:45:41.191Z,-1.00
2019-01-29T05:48:10.546Z,-1.00
2019-01-29T05:50:39.926Z,-1.10
2019-01-29T05:53:09.356Z,-1.10
2019-01-29T05:55:38.773Z,-1.10
2019-01-29T05:58:08.190Z,-1.10
2019-01-29T06:00:39.939Z,-1.00
2019-01-29T06:03:09.350Z,-1.00
2019-01-29T06:05:38.679Z,-1.00
2019-01-29T06:08:07.991Z,-1.00
2019-01-29T06:10:37.359Z,-1.00
2019-01-29T06:13:06.691Z,-1.00
2019-01-29T06:15:35.996Z,-1.00
2019-01-29T06:18:05.707Z,-1.10
2019-01-29T06:20:35.071Z,-1.10
2019-01-29T06:23:04.414Z,-1.10
2019-01-29T06:25:33.780Z,-1.10
2019-01-29T06:28:03.293Z,-1.00
2019-01-29T06:30:32.622Z,-1.00
2019-01-29T06:33:02.055Z,-1.10
2019-01-29T06:35:31.428Z,-1.10
2019-01-29T06:38:00.830Z,-1.10
2019-01-29T06:40:30.486Z,-1.10
2019-01-29T06:42:59.903Z,-1.10
2019-01-29T06:45:29.255Z,-1.10
2019-01-29T06:47:58.525Z,-1.10
2019-01-29T06:50:28.108Z,-1.10
2019-01-29T06:52:57.771Z,-1.10
2019-01-29T06:55:27.215Z,-1.10
2019-01-29T06:57:56.585Z,-1.00
2019-01-29T07:00:30.579Z,-1.00
2019-01-29T07:03:01.618Z,-1.00
2019-01-29T07:05:50.113Z,-1.00
2019-01-29T07:08:19.566Z,-1.00
2019-01-29T07:10:49.023Z,-1.00
2019-01-29T07:13:18.423Z,-0.90
2019-01-29T07:16:24.758Z,-0.90
2019-01-29T07:18:58.431Z,-0.80
2019-01-29T07:21:46.854Z,-0.70
2019-01-29T07:24:16.485Z,-0.80
2019-01-29T07:26:45.817Z,-0.70
2019-01-29T07:29:15.074Z,-0.70
2019-01-29T07:31:44.367Z,-0.60
2019-01-29T07:34:13.680Z,-0.40
2019-01-29T07:36:42.879Z,-0.40
2019-01-29T07:39:12.363Z,-0.50
2019-01-29T07:41:41.682Z,-0.40
2019-01-29T07:44:10.986Z,-0.40
2019-01-29T07:46:40.273Z,-0.20
2019-01-29T07:49:09.568Z,0.00
2019-01-29T07:51:38.840Z,0.10
2019-01-29T07:54:08.123Z,0.20
2019-01-29T07:56:37.490Z,0.80
2019-01-29T07:59:06.887Z,1.00
2019-01-29T08:01:36.391Z,0.90
2019-01-29T08:04:06.042Z,0.60
2019-01-29T08:06:35.303Z,0.50
2019-01-29T08:09:07.899Z,0.50
2019-01-29T08:11:37.178Z,0.40
2019-01-29T08:14:06.592Z,0.50
2019-01-29T08:16:35.997Z,0.50
2019-01-29T08:19:06.741Z,1.00
2019-01-29T08:21:36.114Z,3.80
2019-01-29T08:24:05.611Z,3.30
2019-01-29T08:26:35.584Z,2.60
2019-01-29T08:29:05.136Z,2.30
2019-01-29T08:31:34.501Z,2.40
2019-01-29T08:34:03.963Z,3.50
2019-01-29T09:54:55.224Z,2.50
2019-01-29T09:57:24.637Z,2.70
2019-01-29T09:59:54.064Z,2.80
2019-01-29T10:02:23.440Z,2.50
2019-01-29T10:04:53.013Z,2.30
2019-01-29T10:07:22.250Z,2.20
2019-01-29T10:09:51.721Z,2.20
2019-01-29T10:12:21.040Z,2.20
2019-01-29T10:14:50.409Z,2.20
2019-01-29T10:17:20.163Z,2.20
2019-01-29T10:19:49.513Z,2.10
2019-01-29T10:22:18.952Z,2.10
2019-01-29T10:24:48.751Z,2.10
2019-01-29T10:27:18.131Z,2.20
2019-01-29T10:29:47.589Z,2.20
2019-01-29T10:32:16.923Z,2.20
2019-01-29T10:34:46.478Z,2.20
2019-01-29T10:37:15.878Z,2.20
2019-01-29T10:39:45.288Z,2.10
2019-01-29T10:42:14.789Z,2.10
2019-01-29T10:44:44.406Z,2.10
2019-01-29T10:47:13.844Z,2.10
2019-01-29T10:49:43.504Z,2.10
2019-01-29T10:52:12.970Z,2.10
2019-01-29T10:54:42.520Z,2.10
2019-01-29T10:57:12.224Z,2.00
2019-01-29T10:59:41.690Z,2.00
2019-01-29T11:02:11.058Z,2.00
2019-01-29T11:04:41.062Z,2.00
2019-01-29T11:07:10.523Z,2.10
2019-01-29T11:09:40.027Z,2.10
2019-01-29T11:12:09.474Z,2.10
2019-01-29T11:14:38.903Z,2.20
2019-01-29T11:17:08.424Z,2.20
2019-01-29T11:19:37.968Z,2.20
2019-01-29T11:22:07.785Z,2.30
2019-01-29T11:24:37.368Z,2.30
2019-01-29T11:27:06.748Z,2.20
2019-01-29T11:29:36.187Z,2.20
2019-01-29T11:32:06.215Z,2.20
2019-01-29T11:34:35.627Z,2.20
2019-01-29T11:37:05.182Z,2.20
2019-01-29T11:39:34.565Z,2.20
2019-01-29T11:42:04.073Z,2.20
2019-01-29T11:44:33.722Z,2.20
2019-01-29T11:47:03.386Z,2.20
2019-01-29T11:49:32.759Z,2.20
2019-01-29T11:52:02.180Z,2.20
2019-01-29T11:54:31.482Z,2.20
2019-01-29T11:57:01.222Z,2.10
2019-01-29T11:59:30.768Z,2.10
2019-01-29T12:02:00.160Z,2.10
2019-01-29T12:04:29.836Z,2.10
2019-01-29T12:06:59.212Z,2.10
2019-01-29T12:09:28.891Z,2.10
2019-01-29T12:11:58.419Z,2.10
2019-01-29T12:14:28.089Z,2.10
2019-01-29T12:16:57.617Z,2.00
2019-01-29T12:19:29.133Z,2.00
2019-01-29T12:21:58.712Z,1.90
2019-01-29T12:24:28.153Z,1.90
2019-01-29T12:26:58.742Z,1.90
2019-01-29T12:29:28.159Z,1.90
2019-01-29T12:31:57.692Z,1.80
2019-01-29T12:34:27.179Z,1.90
2019-01-29T12:36:58.451Z,1.80
2019-01-29T12:39:28.138Z,1.80
2019-01-29T12:41:57.555Z,1.80
2019-01-29T12:44:26.894Z,1.80
2019-01-29T12:46:56.403Z,1.80
2019-01-29T12:49:26.043Z,1.80
2019-01-29T12:52:08.324Z,1.80
2019-01-29T12:54:37.745Z,1.80
2019-01-29T12:57:07.270Z,1.80
2019-01-29T12:59:36.616Z,1.80
2019-01-29T13:02:06.063Z,1.80
2019-01-29T13:04:35.449Z,1.80
2019-01-29T13:07:04.796Z,1.80
2019-01-29T13:09:34.123Z,1.80
2019-01-29T13:12:03.767Z,1.80
2019-01-29T13:14:33.107Z,1.80
2019-01-29T13:17:02.672Z,1.80
2019-01-29T13:19:32.203Z,1.80
2019-01-29T13:22:01.738Z,1.80
2019-01-29T13:24:31.085Z,1.80
2019-01-29T13:27:00.759Z,1.80
2019-01-29T13:29:30.086Z,1.80
2019-01-29T13:31:59.492Z,1.80
2019-01-29T13:34:29.063Z,1.70
2019-01-29T13:36:58.524Z,1.70
2019-01-29T13:39:27.899Z,1.70
2019-01-29T13:41:57.528Z,1.70
2019-01-29T13:44:26.931Z,1.70
2019-01-29T13:46:56.378Z,1.70
2019-01-29T13:49:26.014Z,1.70
2019-01-29T13:51:55.413Z,1.70
2019-01-29T13:54:24.813Z,1.70
2019-01-29T13:56:54.298Z,1.70
2019-01-29T13:59:23.639Z,1.70
2019-01-29T14:01:53.181Z,1.70
2019-01-29T14:04:22.689Z,1.70
2019-01-29T14:06:52.091Z,1.70
2019-01-29T14:09:21.929Z,1.70
2019-01-29T14:11:51.468Z,1.70
2019-01-29T14:14:20.974Z,1.60
2019-01-29T14:16:50.319Z,1.60
2019-01-29T14:19:19.757Z,1.60
2019-01-29T14:21:49.115Z,1.60
2019-01-29T14:24:18.522Z,1.60
2019-01-29T14:26:48.278Z,1.50
2019-01-29T14:29:17.808Z,1.50
2019-01-29T14:31:47.151Z,1.50
2019-01-29T14:34:16.663Z,1.50
2019-01-29T14:36:46.008Z,1.50
2019-01-29T14:39:45.389Z,1.50
2019-01-29T14:42:14.751Z,1.50
2019-01-29T14:44:48.739Z,1.50
2019-01-29T14:47:18.165Z,1.50
2019-01-29T14:49:47.665Z,1.50
2019-01-29T14:52:17.046Z,1.60
2019-01-29T14:54:46.479Z,1.50
2019-01-29T14:57:16.068Z,1.50
2019-01-29T14:59:45.371Z,1.50
2019-01-29T15:02:14.719Z,1.50
2019-01-29T15:04:48.950Z,1.50
2019-01-29T15:07:18.692Z,1.50
2019-01-29T15:09:48.235Z,1.50
2019-01-29T15:12:18.563Z,1.40
2019-01-29T15:14:47.919Z,1.40
2019-01-29T15:17:45.432Z,1.40
2019-01-29T15:20:14.805Z,1.40
2019-01-29T15:22:44.215Z,1.40
2019-01-29T15:25:13.631Z,1.40
2019-01-29T15:27:42.971Z,1.40
2019-01-29T15:30:21.849Z,1.40
2019-01-29T15:32:51.503Z,1.40
2019-01-29T15:35:20.770Z,1.40
2019-01-29T15:37:50.189Z,1.40
2019-01-29T15:40:21.380Z,1.30
2019-01-29T15:42:50.806Z,1.30
2019-01-29T15:45:20.409Z,1.30
2019-01-29T15:47:51.023Z,1.30
2019-01-29T15:50:21.170Z,1.30
2019-01-29T15:52:50.443Z,1.30
2019-01-29T15:55:20.527Z,1.30
2019-01-29T15:57:51.390Z,1.30
2019-01-29T16:00:23.999Z,1.30
2019-01-29T16:02:53.295Z,1.30
2019-01-29T16:05:24.758Z,1.30
2019-01-29T16:07:54.069Z,1.30
2019-01-29T16:10:26.471Z,1.30
2019-01-29T16:12:55.675Z,1.30
2019-01-29T16:15:27.049Z,1.30
2019-01-29T16:17:56.340Z,1.40
2019-01-29T16:20:25.626Z,1.40
2019-01-29T16:22:54.990Z,1.40
2019-01-29T16:25:25.749Z,1.40
2019-01-29T16:27:55.079Z,1.40
2019-01-29T16:30:28.412Z,1.40
2019-01-29T16:32:57.848Z,1.40
2019-01-29T16:35:29.683Z,1.40
2019-01-29T16:37:59.126Z,1.40
2019-01-29T16:40:29.883Z,1.40
2019-01-29T16:42:59.160Z,1.40
2019-01-29T16:45:30.682Z,1.40
2019-01-29T16:48:00.625Z,1.40
2019-01-29T16:50:30.034Z,1.40
2019-01-29T16:52:59.834Z,1.40
2019-01-29T16:55:31.502Z,1.40
2019-01-29T16:58:00.350Z,1.30
2019-01-29T17:00:30.912Z,1.40
2019-01-29T17:03:00.952Z,1.40
2019-01-29T17:05:33.077Z,1.30
2019-01-29T17:08:03.490Z,1.30
2019-01-29T17:10:33.395Z,1.30
2019-01-29T17:13:02.970Z,1.30
2019-01-29T17:15:32.389Z,1.20
2019-01-29T17:18:03.779Z,1.20
2019-01-29T17:20:37.041Z,1.20
2019-01-29T17:23:07.320Z,1.30
2019-01-29T17:25:37.291Z,1.20
2019-01-29T17:28:07.010Z,1.30
2019-01-29T17:30:45.351Z,1.30
2019-01-29T17:33:18.069Z,1.30
2019-01-29T17:35:48.119Z,1.30
2019-01-29T17:38:17.472Z,1.30
2019-01-29T17:40:47.600Z,1.30
2019-01-29T17:43:17.032Z,1.30
2019-01-29T17:45:47.945Z,1.30
2019-01-29T17:48:17.275Z,1.30
2019-01-29T17:50:46.772Z,1.30
2019-01-29T17:53:16.122Z,1.30
2019-01-29T17:55:46.679Z,1.20
2019-01-29T17:58:16.159Z,1.10
2019-01-29T18:00:52.017Z,1.00
2019-01-29T18:03:21.339Z,1.00
2019-01-29T18:05:50.668Z,1.00
2019-01-29T18:08:20.031Z,1.00
2019-01-29T18:10:49.344Z,1.00
2019-01-29T18:13:18.636Z,1.00
2019-01-29T18:15:47.968Z,0.90
2019-01-29T18:18:17.455Z,0.90
2019-01-29T18:20:46.821Z,0.90
2019-01-29T18:23:16.118Z,0.90
2019-01-29T18:25:45.397Z,0.90
2019-01-29T18:28:14.732Z,0.90
2019-01-29T18:30:44.164Z,0.90
2019-01-29T18:33:13.468Z,0.80
2019-01-29T18:35:42.819Z,0.90
2019-01-29T18:38:12.235Z,0.90
2019-01-29T18:40:44.704Z,0.90
2019-01-29T18:43:14.023Z,1.00
2019-01-29T18:45:43.536Z,1.00
2019-01-29T18:48:12.861Z,1.00
2019-01-29T18:50:42.048Z,0.90
2019-01-29T18:53:11.385Z,0.90
2019-01-29T18:55:40.627Z,1.00
2019-01-29T18:58:11.882Z,1.00
2019-01-29T19:00:41.265Z,1.00
2019-01-29T19:03:13.019Z,1.00
2019-01-29T19:05:42.395Z,1.00
2019-01-29T19:08:11.707Z,0.90
2019-01-29T19:10:42.157Z,0.90
2019-01-29T19:13:12.204Z,0.90
2019-01-29T19:15:43.186Z,0.90
2019-01-29T19:18:12.730Z,1.00
2019-01-29T19:20:42.182Z,1.00
2019-01-29T19:23:11.589Z,0.90
2019-01-29T19:25:41.046Z,1.00
2019-01-29T19:28:10.586Z,0.90
2019-01-29T19:30:40.016Z,1.00
2019-01-29T19:33:09.413Z,1.00
2019-01-29T19:35:38.923Z,0.90
2019-01-29T19:38:10.470Z,0.90
2019-01-29T19:40:40.555Z,0.90
2019-01-29T19:43:10.208Z,0.90
2019-01-29T19:45:40.078Z,0.80
2019-01-29T19:48:10.241Z,0.90
2019-01-29T19:50:39.638Z,0.90
2019-01-29T19:53:09.005Z,0.90
2019-01-29T19:55:38.457Z,0.90
2019-01-29T19:58:09.140Z,0.90
2019-01-29T20:00:41.536Z,0.90
2019-01-29T20:03:11.064Z,0.90
2019-01-29T20:05:40.560Z,0.90
2019-01-29T20:08:09.908Z,0.90
2019-01-29T20:10:39.335Z,0.90
2019-01-29T20:13:08.769Z,0.90
2019-01-29T20:15:38.153Z,0.90
2019-01-29T20:18:07.503Z,0.90
2019-01-29T20:20:39.197Z,0.90
2019-01-29T20:23:08.683Z,0.90
2019-01-29T20:25:38.322Z,0.90
2019-01-29T20:28:09.240Z,1.00
2019-01-29T20:30:39.745Z,1.00
2019-01-29T20:33:09.298Z,1.00
2019-01-29T20:35:38.744Z,0.90
2019-01-29T20:38:08.203Z,1.00
2019-01-29T20:40:37.829Z,1.00
2019-01-29T20:43:07.172Z,1.00
2019-01-29T20:45:36.731Z,1.00
2019-01-29T20:48:06.245Z,1.00
2019-01-29T20:50:36.534Z,1.00
2019-01-29T20:53:05.937Z,1.00
2019-01-29T20:55:35.390Z,1.00
2019-01-29T20:58:05.475Z,1.00
2019-01-29T21:00:37.193Z,1.00
2019-01-29T21:03:06.927Z,1.00
2019-01-29T21:05:36.652Z,1.00
2019-01-29T21:08:06.820Z,1.00
2019-01-29T21:10:36.583Z,0.90
2019-01-29T21:13:05.906Z,0.90
2019-01-29T21:15:38.481Z,1.00
2019-01-29T21:18:06.558Z,1.00
2019-01-29T21:20:36.148Z,0.90
2019-01-29T21:23:05.723Z,1.00
2019-01-29T21:25:35.130Z,1.00
2019-01-29T21:28:04.785Z,0.90
2019-01-29T21:30:45.139Z,0.80
2019-01-29T21:33:14.502Z,0.90
2019-01-29T21:35:43.878Z,0.80
2019-01-29T21:38:13.313Z,0.80
2019-01-29T21:40:42.737Z,0.80
2019-01-29T21:43:12.213Z,0.80
2019-01-29T21:45:41.866Z,0.80
2019-01-29T21:48:11.350Z,0.70
2019-01-29T21:50:40.787Z,0.70
2019-01-29T21:53:10.308Z,0.70
2019-01-29T21:55:39.897Z,0.70
2019-01-29T21:58:09.555Z,0.70
2019-01-29T22:00:41.480Z,0.70
2019-01-29T22:03:11.566Z,0.70
2019-01-29T22:05:41.286Z,0.60
2019-01-29T22:08:11.769Z,0.60
2019-01-29T22:10:41.816Z,0.60
2019-01-29T22:13:12.697Z,0.60
2019-01-29T22:15:42.569Z,0.70
2019-01-29T22:18:14.032Z,0.70
2019-01-29T22:20:43.450Z,0.70
2019-01-29T22:23:13.059Z,0.70
2019-01-29T22:25:42.791Z,0.70
2019-01-29T22:28:12.800Z,0.70
2019-01-29T22:30:43.766Z,0.80
2019-01-29T22:33:13.255Z,0.70
2019-01-29T22:35:42.838Z,0.70
2019-01-29T22:38:12.458Z,0.70
2019-01-29T22:40:41.907Z,0.60
2019-01-29T22:43:11.255Z,0.70
2019-01-29T22:45:40.600Z,0.60
2019-01-29T22:48:10.361Z,0.60
2019-01-29T22:50:41.495Z,0.60
2019-01-29T22:53:29.675Z,0.60
2019-01-29T22:55:59.465Z,0.60
2019-01-29T22:58:29.011Z,0.60
2019-01-29T23:01:28.556Z,0.60
2019-01-29T23:04:27.244Z,0.60
2019-01-29T23:07:08.599Z,0.70
2019-01-29T23:09:37.943Z,0.60
2019-01-29T23:12:07.612Z,0.60
2019-01-29T23:14:37.043Z,0.60
2019-01-29T23:17:06.663Z,0.60
2019-01-29T23:19:36.249Z,0.60
2019-01-29T23:22:05.841Z,0.60
2019-01-29T23:24:35.268Z,0.60
2019-01-29T23:27:04.695Z,0.70
2019-01-29T23:29:42.995Z,0.60
2019-01-29T23:32:05.404Z,0.70
2019-01-29T23:34:34.765Z,0.60
2019-01-29T23:37:04.353Z,0.60
2019-01-29T23:39:33.829Z,0.60
2019-01-29T23:42:03.212Z,0.60
2019-01-29T23:44:32.563Z,0.60
2019-01-29T23:47:02.002Z,0.60
2019-01-29T23:49:31.494Z,0.60
2019-01-29T23:52:00.921Z,0.60
2019-01-29T23:54:30.334Z,0.60
2019-01-29T23:57:00.047Z,0.70
2019-01-29T23:59:30.114Z,0.70
